Time;durP1;ratioP1;P1;durP2;ratioP2;P2;SDS_P1;SDS_P2;PMS_P1;PMS_P2;Temp;Humidity;BMP_temperature;BMP_pressure;BME280_temperature;BME280_humidity;BME280_pressure;Samples;Min_cycle;Max_cycle;Signal;HPM_P1;HPM_P2
2021/05/25 00:00:19;;;;;;;0.30;0.20;;;11.60;72.70;;;;;;5029990;28;20038;-65
2021/05/25 00:02:47;;;;;;;1.02;0.38;;;11.50;73.00;;;;;;5034304;28;20061;-63
2021/05/25 00:05:25;;;;;;;1.00;0.43;;;11.50;73.70;;;;;;5032774;28;20107;-65
2021/05/25 00:07:55;;;;;;;1.33;0.40;;;11.50;72.90;;;;;;5031966;28;20091;-65
2021/05/25 00:10:23;;;;;;;1.35;0.50;;;11.40;72.80;;;;;;5033308;28;20599;-65
2021/05/25 00:12:52;;;;;;;1.67;0.40;;;11.40;72.70;;;;;;5033887;28;20030;-65
2021/05/25 00:15:25;;;;;;;0.68;0.30;;;11.40;72.60;;;;;;5031781;28;20047;-65
2021/05/25 00:17:54;;;;;;;2.03;0.30;;;11.40;72.70;;;;;;5026469;28;20036;-64
2021/05/25 00:20:22;;;;;;;1.80;0.52;;;11.30;72.70;;;;;;5034431;28;20036;-65
2021/05/25 00:22:52;;;;;;;2.22;0.52;;;11.30;72.90;;;;;;5033671;28;20087;-64
2021/05/25 00:25:21;;;;;;;0.95;0.40;;;11.30;73.00;;;;;;5032205;28;20068;-65
2021/05/25 00:27:50;;;;;;;0.93;0.50;;;11.30;73.00;;;;;;5027147;28;20043;-65
2021/05/25 00:30:22;;;;;;;1.17;0.40;;;11.30;72.70;;;;;;5025367;28;20029;-63
2021/05/25 00:32:51;;;;;;;0.57;0.30;;;11.30;72.70;;;;;;5032867;28;20400;-65
2021/05/25 00:35:20;;;;;;;2.03;0.40;;;11.30;72.50;;;;;;5028079;28;20021;-65
2021/05/25 00:37:51;;;;;;;1.35;0.40;;;11.30;72.20;;;;;;5032528;28;20043;-65
2021/05/25 00:40:21;;;;;;;2.63;0.50;;;11.30;72.00;;;;;;5032575;28;20038;-65
2021/05/25 00:42:47;;;;;;;0.77;0.40;;;11.30;71.90;;;;;;5032338;28;20124;-65
2021/05/25 00:45:20;;;;;;;2.55;0.30;;;11.30;71.80;;;;;;5032516;28;20592;-64
2021/05/25 00:47:46;;;;;;;2.03;0.50;;;11.20;71.60;;;;;;5030939;28;20029;-65
2021/05/25 00:50:26;;;;;;;1.58;0.60;;;11.20;71.70;;;;;;5029873;28;20034;-64
2021/05/25 00:52:57;;;;;;;1.63;0.43;;;11.20;71.90;;;;;;5028463;28;20071;-64
2021/05/25 00:55:31;;;;;;;2.28;0.52;;;11.20;71.70;;;;;;5031339;28;20045;-64
2021/05/25 00:58:03;;;;;;;2.63;0.40;;;11.20;71.80;;;;;;5035255;28;20034;-65
2021/05/25 01:00:49;;;;;;;2.33;0.40;;;11.20;71.40;;;;;;5027378;28;20044;-64
2021/05/25 01:03:20;;;;;;;3.05;0.50;;;11.10;71.40;;;;;;5038866;28;20404;-65
2021/05/25 01:05:47;;;;;;;0.60;0.40;;;11.10;71.20;;;;;;5030836;28;20041;-65
2021/05/25 01:08:18;;;;;;;1.67;0.32;;;11.10;71.10;;;;;;5024634;28;20068;-64
2021/05/25 01:10:52;;;;;;;1.98;0.30;;;11.00;71.00;;;;;;5026563;28;20041;-64
2021/05/25 01:13:22;;;;;;;1.80;0.40;;;11.00;71.10;;;;;;5030218;28;20041;-63
2021/05/25 01:15:53;;;;;;;3.42;0.50;;;10.90;70.90;;;;;;5030295;28;20121;-65
2021/05/25 01:18:19;;;;;;;2.92;0.40;;;10.90;71.10;;;;;;5027842;28;20041;-65
2021/05/25 01:20:48;;;;;;;3.15;0.47;;;10.80;70.90;;;;;;5030788;28;20033;-65
2021/05/25 01:23:19;;;;;;;1.65;0.30;;;10.80;70.80;;;;;;5030888;28;20036;-65
2021/05/25 01:25:47;;;;;;;3.85;0.75;;;10.70;70.90;;;;;;5031530;28;20068;-64
2021/05/25 01:28:16;;;;;;;1.73;0.40;;;10.70;70.80;;;;;;5031590;28;20520;-65
2021/05/25 01:30:48;;;;;;;1.88;0.30;;;10.60;70.90;;;;;;5029323;28;22530;-65
2021/05/25 01:33:17;;;;;;;1.67;0.63;;;10.60;70.90;;;;;;5033307;28;20049;-65
2021/05/25 01:35:46;;;;;;;2.58;0.60;;;10.60;70.90;;;;;;5029866;28;20030;-64
2021/05/25 01:38:16;;;;;;;1.60;0.40;;;10.50;71.10;;;;;;5030641;28;20524;-65
2021/05/25 01:40:47;;;;;;;1.98;0.52;;;10.50;71.10;;;;;;5030024;28;20099;-65
2021/05/25 01:43:18;;;;;;;2.13;0.50;;;10.50;71.30;;;;;;5033592;28;20025;-65
2021/05/25 01:45:48;;;;;;;1.98;0.50;;;10.40;71.10;;;;;;5035468;28;20029;-65
2021/05/25 01:48:17;;;;;;;1.08;0.40;;;10.40;71.20;;;;;;5031656;28;20029;-65
2021/05/25 01:50:49;;;;;;;3.50;0.40;;;10.40;71.30;;;;;;5033419;28;20468;-65
2021/05/25 01:53:17;;;;;;;2.53;0.40;;;10.30;71.30;;;;;;5028432;28;20038;-65
2021/05/25 01:55:45;;;;;;;3.40;0.50;;;10.30;71.30;;;;;;5031424;28;20033;-65
2021/05/25 01:58:24;;;;;;;1.60;0.45;;;10.30;71.30;;;;;;5026483;28;20026;-65
2021/05/25 02:00:59;;;;;;;1.90;0.30;;;10.30;71.40;;;;;;5026818;28;20088;-65
2021/05/25 02:03:28;;;;;;;1.77;0.57;;;10.30;71.40;;;;;;5030595;28;20040;-65
2021/05/25 02:05:57;;;;;;;0.70;0.30;;;10.20;71.40;;;;;;5025558;28;20049;-64
2021/05/25 02:08:28;;;;;;;1.83;0.50;;;10.20;71.50;;;;;;5030111;28;20042;-64
2021/05/25 02:10:59;;;;;;;3.08;0.50;;;10.20;71.40;;;;;;5027991;28;20432;-65
2021/05/25 02:13:38;;;;;;;1.77;0.47;;;10.10;71.40;;;;;;5029421;28;20108;-65
2021/05/25 02:16:08;;;;;;;1.08;0.40;;;10.10;71.40;;;;;;5032871;28;20033;-65
2021/05/25 02:18:42;;;;;;;2.60;0.50;;;10.10;71.30;;;;;;5026510;28;20041;-65
2021/05/25 02:21:14;;;;;;;1.97;0.40;;;10.00;71.20;;;;;;5029204;28;20054;-65
2021/05/25 02:23:45;;;;;;;3.63;0.47;;;10.00;71.10;;;;;;5026203;28;20125;-65
2021/05/25 02:26:11;;;;;;;1.63;0.47;;;10.00;71.30;;;;;;5032338;28;20113;-65
2021/05/25 02:28:40;;;;;;;0.70;0.22;;;9.90;71.30;;;;;;5028547;28;20034;-64
2021/05/25 02:31:08;;;;;;;1.83;0.30;;;9.90;71.20;;;;;;5030017;28;20034;-65
2021/05/25 02:33:37;;;;;;;0.93;0.20;;;9.80;71.30;;;;;;5029874;28;20582;-65
2021/05/25 02:36:08;;;;;;;1.25;0.50;;;9.80;71.40;;;;;;5033521;28;20107;-65
2021/05/25 02:38:36;;;;;;;0.85;0.40;;;9.70;71.60;;;;;;5032356;28;20037;-65
2021/05/25 02:41:08;;;;;;;1.85;0.38;;;9.70;71.70;;;;;;5033063;28;20036;-66
2021/05/25 02:43:36;;;;;;;2.70;0.32;;;9.60;71.80;;;;;;5030045;28;20128;-65
2021/05/25 02:46:02;;;;;;;3.50;0.73;;;9.60;71.80;;;;;;5031074;28;20029;-64
2021/05/25 02:48:32;;;;;;;1.30;0.40;;;9.60;71.80;;;;;;5029769;28;20091;-64
2021/05/25 02:51:05;;;;;;;1.48;0.40;;;9.60;72.00;;;;;;5033298;28;20587;-65
2021/05/25 02:53:38;;;;;;;0.45;0.20;;;9.50;71.90;;;;;;5033996;28;20512;-64
2021/05/25 02:56:08;;;;;;;1.80;0.30;;;9.50;71.80;;;;;;5036968;28;20116;-64
2021/05/25 02:58:36;;;;;;;3.80;0.40;;;9.50;71.70;;;;;;5036577;28;20037;-65
2021/05/25 03:01:06;;;;;;;3.28;0.40;;;9.50;71.70;;;;;;5031193;28;20034;-64
2021/05/25 03:03:34;;;;;;;2.88;0.45;;;9.50;71.70;;;;;;5033312;28;20631;-65
2021/05/25 03:06:04;;;;;;;3.15;0.38;;;9.40;71.40;;;;;;5029733;28;20037;-65
2021/05/25 03:08:37;;;;;;;2.05;0.30;;;9.40;71.30;;;;;;5034833;28;20386;-64
2021/05/25 03:11:07;;;;;;;12.77;4.00;;;9.50;71.40;;;;;;5032864;28;20132;-65
2021/05/25 03:13:33;;;;;;;8.00;3.40;;;9.40;71.10;;;;;;5032515;28;20036;-64
2021/05/25 03:16:02;;;;;;;3.15;1.10;;;9.40;70.70;;;;;;5030891;28;20064;-65
2021/05/25 03:18:27;;;;;;;2.92;0.85;;;9.40;70.60;;;;;;5031317;28;20080;-65
2021/05/25 03:20:58;;;;;;;2.50;1.40;;;9.40;70.60;;;;;;5034422;28;20033;-65
2021/05/25 03:23:26;;;;;;;1.65;0.63;;;9.40;70.50;;;;;;5030944;28;20084;-65
2021/05/25 03:25:56;;;;;;;2.03;0.50;;;9.40;71.40;;;;;;5035017;28;20374;-65
2021/05/25 03:28:24;;;;;;;1.27;0.55;;;9.40;70.30;;;;;;5036679;28;20033;-65
2021/05/25 03:30:52;;;;;;;6.03;0.70;;;9.40;70.20;;;;;;5030202;28;20120;-65
2021/05/25 03:33:20;;;;;;;1.95;0.85;;;9.40;70.20;;;;;;5031686;28;20037;-65
2021/05/25 03:35:48;;;;;;;1.55;0.60;;;9.40;70.20;;;;;;5032688;28;20234;-65
2021/05/25 03:38:18;;;;;;;2.03;1.58;;;9.40;70.00;;;;;;5028110;28;20041;-65
2021/05/25 03:40:49;;;;;;;8.43;3.83;;;9.40;69.90;;;;;;5031084;28;20034;-64
2021/05/25 03:43:16;;;;;;;8.13;2.83;;;9.40;69.90;;;;;;5026129;28;20142;-64
2021/05/25 03:45:45;;;;;;;5.75;2.95;;;9.40;69.90;;;;;;5034020;28;20535;-65
2021/05/25 03:48:17;;;;;;;6.38;2.70;;;9.40;69.90;;;;;;5035774;28;20037;-63
2021/05/25 03:50:46;;;;;;;11.05;4.68;;;9.30;69.80;;;;;;5026102;28;20071;-64
2021/05/25 03:53:19;;;;;;;7.15;4.40;;;9.30;69.80;;;;;;5024216;28;20097;-64
2021/05/25 04:00:58;;;;;;;1.90;0.90;;;9.30;69.70;;;;;;5034023;28;20064;-64
2021/05/25 04:03:27;;;;;;;4.13;1.50;;;9.30;69.60;;;;;;5027383;28;20040;-62
2021/05/25 04:05:53;;;;;;;4.22;1.35;;;9.30;69.60;;;;;;5033470;28;20083;-65
2021/05/25 04:08:21;;;;;;;4.68;1.33;;;9.30;69.50;;;;;;5036844;28;20462;-65
2021/05/25 04:10:52;;;;;;;2.75;0.70;;;9.30;69.50;;;;;;5031851;28;20053;-65
2021/05/25 04:13:18;;;;;;;5.30;1.35;;;9.30;69.20;;;;;;5035959;28;20041;-65
2021/05/25 04:15:52;;;;;;;2.65;1.48;;;9.30;69.20;;;;;;5035517;28;20037;-65
2021/05/25 04:18:22;;;;;;;3.95;1.25;;;9.30;69.00;;;;;;5031635;28;20411;-64
2021/05/25 04:20:51;;;;;;;3.05;1.20;;;9.30;69.10;;;;;;5030701;28;20048;-64
2021/05/25 04:23:19;;;;;;;6.93;2.17;;;9.30;69.00;;;;;;5030141;28;20034;-65
2021/05/25 04:25:45;;;;;;;2.78;1.30;;;9.30;69.00;;;;;;5029718;28;20518;-66
2021/05/25 04:28:13;;;;;;;3.67;0.98;;;9.30;69.00;;;;;;5028791;28;20061;-65
2021/05/25 04:30:42;;;;;;;3.97;0.90;;;9.30;69.20;;;;;;5037640;28;20293;-65
2021/05/25 04:33:15;;;;;;;1.63;0.82;;;9.30;69.20;;;;;;5035206;28;20421;-65
2021/05/25 04:35:45;;;;;;;2.85;0.82;;;9.30;69.20;;;;;;5037050;28;20025;-64
2021/05/25 04:38:15;;;;;;;4.13;1.00;;;9.30;69.20;;;;;;5033309;28;20482;-66
2021/05/25 04:40:48;;;;;;;4.95;1.70;;;9.30;69.20;;;;;;5038431;28;20117;-66
2021/05/25 04:43:16;;;;;;;11.07;4.63;;;9.30;69.20;;;;;;5035293;28;20026;-65
2021/05/25 04:45:44;;;;;;;12.85;5.15;;;9.30;69.30;;;;;;5037200;28;20108;-65
2021/05/25 04:48:17;;;;;;;5.78;1.60;;;9.30;69.20;;;;;;5035811;28;20037;-67
2021/05/25 04:50:47;;;;;;;4.32;1.13;;;9.30;69.30;;;;;;5038320;28;20060;-65
2021/05/25 04:53:17;;;;;;;4.45;0.80;;;9.40;69.30;;;;;;5036794;28;20029;-66
2021/05/25 04:55:45;;;;;;;3.22;0.70;;;9.40;69.30;;;;;;5033781;28;20061;-64
2021/05/25 04:58:13;;;;;;;5.57;0.55;;;9.40;69.30;;;;;;5034439;28;20120;-65
2021/05/25 05:00:44;;;;;;;3.22;0.77;;;9.40;69.30;;;;;;5036526;28;20053;-65
2021/05/25 05:03:12;;;;;;;4.55;0.85;;;9.40;69.20;;;;;;5036012;28;20033;-66
2021/05/25 05:05:45;;;;;;;5.28;0.80;;;9.40;69.20;;;;;;5033356;28;20099;-65
2021/05/25 05:08:11;;;;;;;7.50;0.80;;;9.50;69.10;;;;;;5038323;28;20504;-65
2021/05/25 05:10:41;;;;;;;4.07;0.88;;;9.50;69.20;;;;;;5033291;28;20048;-65
2021/05/25 05:13:11;;;;;;;5.07;0.82;;;9.50;69.30;;;;;;5031938;28;20080;-66
2021/05/25 05:15:37;;;;;;;5.97;0.73;;;9.50;69.30;;;;;;5035008;28;20496;-65
2021/05/25 05:18:05;;;;;;;3.85;0.80;;;9.50;69.30;;;;;;5037483;28;20101;-65
2021/05/25 05:20:38;;;;;;;7.07;0.70;;;9.50;69.50;;;;;;5033390;28;20033;-65
2021/05/25 05:23:08;;;;;;;4.18;0.73;;;9.60;69.60;;;;;;5036629;28;20504;-65
2021/05/25 05:25:34;;;;;;;4.72;0.77;;;9.60;69.50;;;;;;5040384;28;20045;-66
2021/05/25 05:28:04;;;;;;;3.58;0.80;;;9.70;70.30;;;;;;5036065;28;20044;-65
2021/05/25 05:30:34;;;;;;;3.47;0.73;;;9.70;69.40;;;;;;5034407;28;20037;-65
2021/05/25 05:33:05;;;;;;;1.95;0.60;;;9.80;69.50;;;;;;5035827;28;20462;-65
2021/05/25 05:35:33;;;;;;;7.72;0.77;;;9.80;69.50;;;;;;5032324;28;20030;-65
2021/05/25 05:37:59;;;;;;;3.03;0.60;;;9.90;69.50;;;;;;5035977;28;20032;-65
2021/05/25 05:40:30;;;;;;;3.65;0.88;;;9.90;69.30;;;;;;5036662;28;20036;-66
2021/05/25 05:43:00;;;;;;;3.28;0.65;;;10.00;69.20;;;;;;5035818;28;20511;-65
2021/05/25 05:45:28;;;;;;;3.15;0.70;;;10.00;69.70;;;;;;5029107;28;20037;-66
2021/05/25 05:47:59;;;;;;;4.35;0.70;;;10.10;68.70;;;;;;5034976;28;20382;-65
2021/05/25 05:50:26;;;;;;;2.03;0.60;;;10.10;68.30;;;;;;5031791;28;20037;-65
2021/05/25 05:52:54;;;;;;;4.95;0.70;;;10.20;68.50;;;;;;5034167;28;20038;-65
2021/05/25 05:55:20;;;;;;;2.55;0.50;;;10.30;68.50;;;;;;5037650;28;20033;-65
2021/05/25 05:57:49;;;;;;;3.42;0.52;;;10.30;68.00;;;;;;5037647;28;20035;-66
2021/05/25 06:00:18;;;;;;;3.38;0.75;;;10.30;67.30;;;;;;5032002;28;20033;-66
2021/05/25 06:02:49;;;;;;;2.60;0.47;;;10.40;67.30;;;;;;5033083;28;20047;-65
2021/05/25 06:05:16;;;;;;;5.72;0.68;;;10.40;67.30;;;;;;5033421;28;20029;-65
2021/05/25 06:07:47;;;;;;;2.38;0.55;;;10.50;67.10;;;;;;5034841;28;20036;-65
2021/05/25 06:10:15;;;;;;;3.72;0.68;;;10.50;66.70;;;;;;5033286;28;20115;-65
2021/05/25 06:12:43;;;;;;;2.47;0.52;;;10.50;66.40;;;;;;5032081;28;20045;-65
2021/05/25 06:15:17;;;;;;;2.65;0.68;;;10.60;65.90;;;;;;5031949;28;21298;-65
2021/05/25 06:17:47;;;;;;;2.83;0.57;;;10.60;65.70;;;;;;5034160;28;20064;-66
2021/05/25 06:20:18;;;;;;;3.35;0.70;;;10.60;65.80;;;;;;5031185;28;20116;-66
2021/05/25 06:22:44;;;;;;;1.90;0.60;;;10.60;65.70;;;;;;5039235;28;20029;-65
2021/05/25 06:25:16;;;;;;;1.50;0.73;;;10.70;65.70;;;;;;5036616;28;20108;-65
2021/05/25 06:27:44;;;;;;;2.97;0.63;;;10.70;65.50;;;;;;5041016;28;20029;-65
2021/05/25 06:30:13;;;;;;;3.53;1.33;;;10.70;65.30;;;;;;5038200;28;20067;-65
2021/05/25 06:32:39;;;;;;;5.57;1.08;;;10.70;65.30;;;;;;5037070;28;20034;-65
2021/05/25 06:35:13;;;;;;;1.95;0.60;;;10.70;65.50;;;;;;5038545;28;20111;-64
2021/05/25 06:37:41;;;;;;;5.15;1.10;;;10.80;65.50;;;;;;5035624;28;20029;-66
2021/05/25 06:40:13;;;;;;;5.68;2.55;;;10.80;64.80;;;;;;5039344;28;20497;-65
2021/05/25 06:42:39;;;;;;;2.65;1.00;;;10.80;64.50;;;;;;5035680;28;20037;-65
2021/05/25 06:45:08;;;;;;;3.47;1.13;;;10.90;64.40;;;;;;5040708;28;20025;-66
2021/05/25 06:47:38;;;;;;;3.03;0.60;;;10.90;64.40;;;;;;5037598;28;20033;-65
2021/05/25 06:50:14;;;;;;;2.03;0.60;;;10.90;64.30;;;;;;5035690;28;20075;-65
2021/05/25 06:52:45;;;;;;;3.38;0.50;;;11.00;64.60;;;;;;5038056;28;20033;-64
2021/05/25 06:55:14;;;;;;;3.70;0.82;;;11.00;64.90;;;;;;5039799;28;20021;-65
2021/05/25 06:57:47;;;;;;;2.53;1.00;;;11.10;64.10;;;;;;5040854;28;20045;-65
2021/05/25 07:00:14;;;;;;;4.45;0.60;;;11.10;64.00;;;;;;5038601;28;20037;-64
2021/05/25 07:02:40;;;;;;;3.00;0.90;;;11.20;63.80;;;;;;5026113;28;20136;-65
2021/05/25 07:05:11;;;;;;;3.00;0.70;;;11.20;64.30;;;;;;5038129;28;20120;-65
2021/05/25 07:07:39;;;;;;;2.83;0.55;;;11.30;63.80;;;;;;5037637;28;20507;-65
2021/05/25 07:10:06;;;;;;;3.50;0.70;;;11.30;63.40;;;;;;5035055;28;20512;-66
2021/05/25 07:12:32;;;;;;;3.35;0.60;;;11.40;63.20;;;;;;5035817;28;20040;-64
2021/05/25 07:15:00;;;;;;;3.40;0.80;;;11.40;63.10;;;;;;5037311;28;20025;-65
2021/05/25 07:17:30;;;;;;;3.58;0.70;;;11.40;62.90;;;;;;5032842;28;20034;-65
2021/05/25 07:19:56;;;;;;;3.47;0.70;;;11.50;62.80;;;;;;5038077;28;20084;-65
2021/05/25 07:22:24;;;;;;;5.00;0.60;;;11.50;63.00;;;;;;5034924;28;20595;-66
2021/05/25 07:24:52;;;;;;;2.33;0.50;;;11.50;62.80;;;;;;5037000;28;20033;-65
2021/05/25 07:27:18;;;;;;;3.70;0.75;;;11.50;62.80;;;;;;5038998;28;20052;-65
2021/05/25 07:29:45;;;;;;;3.55;0.68;;;11.60;62.20;;;;;;5036257;28;20057;-66
2021/05/25 07:32:18;;;;;;;3.88;0.60;;;11.60;62.40;;;;;;5037331;28;20033;-65
2021/05/25 07:34:44;;;;;;;5.28;0.70;;;11.60;62.70;;;;;;5037102;28;20033;-65
2021/05/25 07:37:10;;;;;;;4.68;0.77;;;11.60;61.80;;;;;;5035908;28;20112;-65
2021/05/25 07:39:38;;;;;;;5.15;0.80;;;11.60;61.50;;;;;;5036100;28;20167;-65
2021/05/25 07:42:08;;;;;;;4.88;0.65;;;11.60;61.80;;;;;;5035978;28;20037;-65
2021/05/25 07:44:36;;;;;;;3.53;0.88;;;11.60;61.20;;;;;;5037148;28;20033;-65
2021/05/25 07:47:04;;;;;;;2.22;0.60;;;11.60;61.20;;;;;;5038094;28;20090;-65
2021/05/25 07:49:34;;;;;;;4.15;0.95;;;11.60;61.10;;;;;;5033574;28;20293;-66
2021/05/25 07:52:02;;;;;;;5.13;0.63;;;11.60;61.20;;;;;;5037269;28;20053;-65
2021/05/25 07:54:27;;;;;;;2.53;0.57;;;11.70;61.00;;;;;;5037444;28;20528;-65
2021/05/25 07:56:55;;;;;;;2.30;0.57;;;11.70;61.50;;;;;;5038616;28;20029;-65
2021/05/25 07:59:26;;;;;;;8.50;0.73;;;11.70;61.50;;;;;;5035445;28;20180;-65
2021/05/25 08:01:54;;;;;;;5.30;1.00;;;11.80;61.10;;;;;;5035638;28;20112;-66
2021/05/25 08:04:25;;;;;;;4.28;0.75;;;11.80;61.50;;;;;;5034204;28;20041;-66
2021/05/25 08:06:51;;;;;;;6.63;0.70;;;11.80;61.50;;;;;;5039006;28;20033;-66
2021/05/25 08:09:18;;;;;;;4.60;0.98;;;11.80;61.30;;;;;;5036291;28;20044;-65
2021/05/25 08:11:49;;;;;;;3.72;0.90;;;11.90;61.20;;;;;;5031140;28;20029;-65
2021/05/25 08:14:19;;;;;;;3.40;0.73;;;11.80;60.90;;;;;;5037810;28;20029;-65
2021/05/25 08:16:47;;;;;;;2.80;0.68;;;11.90;61.00;;;;;;5038524;28;20043;-65
2021/05/25 08:21:39;;;;;;;4.22;0.80;;;12.00;62.50;;;;;;5036780;28;20049;-66
2021/05/25 08:24:08;;;;;;;3.30;0.50;;;12.10;61.30;;;;;;5035357;28;20025;-65
2021/05/25 08:26:36;;;;;;;1.98;0.40;;;12.20;59.60;;;;;;5036852;28;20065;-65
2021/05/25 08:29:04;;;;;;;2.75;0.40;;;12.20;59.80;;;;;;5033942;28;20412;-66
2021/05/25 08:31:30;;;;;;;1.63;0.50;;;12.30;59.10;;;;;;5033612;28;20162;-65
2021/05/25 08:34:00;;;;;;;2.85;0.50;;;12.40;59.00;;;;;;5036817;28;20481;-65
2021/05/25 08:36:28;;;;;;;1.85;0.30;;;12.40;58.00;;;;;;5033517;28;20543;-66
2021/05/25 08:38:58;;;;;;;2.75;0.50;;;12.50;58.50;;;;;;5037433;28;20462;-65
2021/05/25 08:41:26;;;;;;;1.45;0.38;;;12.50;57.60;;;;;;5033796;28;20107;-63
2021/05/25 08:43:52;;;;;;;2.42;0.60;;;12.60;57.80;;;;;;5034264;28;20064;-66
2021/05/25 08:46:23;;;;;;;1.88;0.45;;;12.70;58.30;;;;;;5036524;28;20065;-65
2021/05/25 08:48:52;;;;;;;1.50;0.52;;;12.80;57.90;;;;;;5037554;28;20064;-66
2021/05/25 08:51:20;;;;;;;2.20;0.47;;;12.90;57.70;;;;;;5035124;28;20038;-66
2021/05/25 08:53:50;;;;;;;2.40;0.75;;;12.90;57.80;;;;;;5034598;28;20112;-66
2021/05/25 08:56:18;;;;;;;2.45;0.40;;;13.00;57.40;;;;;;5034862;28;20038;-66
2021/05/25 08:58:46;;;;;;;1.38;0.50;;;13.00;57.50;;;;;;5033545;28;20041;-65
2021/05/25 09:01:12;;;;;;;1.70;0.40;;;13.10;57.60;;;;;;5034981;28;20404;-65
2021/05/25 09:04:01;;;;;;;2.47;0.40;;;13.10;57.30;;;;;;5033739;28;20107;-65
2021/05/25 09:06:48;;;;;;;3.22;0.57;;;13.20;57.00;;;;;;5028827;28;20034;-65
2021/05/25 09:09:19;;;;;;;1.75;0.63;;;13.20;56.90;;;;;;5035514;28;20048;-65
2021/05/25 09:12:07;;;;;;;2.65;1.20;;;13.30;57.10;;;;;;5034255;28;20041;-65
2021/05/25 09:14:35;;;;;;;3.65;0.68;;;13.30;57.00;;;;;;5036359;28;20500;-65
2021/05/25 09:17:23;;;;;;;7.25;0.70;;;13.40;57.00;;;;;;5037510;28;20033;-65
2021/05/25 09:20:00;;;;;;;5.10;0.50;;;13.50;56.40;;;;;;5038061;28;20029;-66
2021/05/25 09:22:40;;;;;;;2.65;0.50;;;13.50;56.50;;;;;;5031839;28;20457;-66
2021/05/25 09:25:13;;;;;;;1.80;0.60;;;13.60;56.00;;;;;;5034722;28;20060;-65
2021/05/25 09:27:45;;;;;;;3.10;0.38;;;13.70;55.80;;;;;;5036321;28;20108;-66
2021/05/25 09:30:16;;;;;;;1.33;0.43;;;13.80;55.60;;;;;;5034953;28;20454;-65
2021/05/25 09:33:00;;;;;;;1.02;0.32;;;14.00;55.60;;;;;;5034433;28;20037;-65
2021/05/25 09:35:32;;;;;;;1.45;0.30;;;14.00;54.10;;;;;;5035046;28;20558;-65
2021/05/25 09:38:01;;;;;;;1.75;0.22;;;14.10;53.40;;;;;;5034163;28;20125;-66
2021/05/25 09:40:31;;;;;;;1.88;0.50;;;14.10;54.00;;;;;;5033927;28;20412;-66
2021/05/25 09:43:31;;;;;;;2.10;0.60;;;14.20;53.10;;;;;;5041275;28;20585;-67
2021/05/25 09:46:13;;;;;;;0.85;0.20;;;14.20;53.80;;;;;;5036214;28;20038;-65
2021/05/25 09:48:43;;;;;;;0.95;0.45;;;14.20;54.00;;;;;;5035730;28;20318;-66
2021/05/25 09:51:24;;;;;;;1.77;0.30;;;14.20;53.70;;;;;;5033527;28;20049;-66
2021/05/25 09:53:52;;;;;;;2.22;0.40;;;14.20;53.00;;;;;;5034808;28;20071;-65
2021/05/25 09:56:29;;;;;;;2.63;0.70;;;14.20;54.00;;;;;;5034596;28;20044;-66
2021/05/25 09:59:00;;;;;;;3.15;0.20;;;14.20;52.50;;;;;;5033442;28;20036;-67
2021/05/25 10:01:38;;;;;;;1.65;0.50;;;14.20;52.00;;;;;;5033862;28;20599;-63
2021/05/25 10:04:17;;;;;;;1.48;0.30;;;14.20;51.00;;;;;;5033869;28;20077;-65
2021/05/25 10:06:47;;;;;;;1.77;0.40;;;14.10;51.90;;;;;;5039363;28;20037;-66
2021/05/25 10:09:15;;;;;;;1.35;0.22;;;14.10;52.80;;;;;;5034554;28;20562;-65
2021/05/25 10:11:48;;;;;;;1.35;0.40;;;14.20;53.00;;;;;;5046767;28;20854;-65
2021/05/25 10:14:18;;;;;;;2.50;0.32;;;14.20;53.10;;;;;;5034681;28;20113;-66
2021/05/25 10:16:49;;;;;;;3.80;0.75;;;14.30;53.10;;;;;;5034523;28;20037;-65
2021/05/25 10:19:27;;;;;;;1.55;0.50;;;14.40;52.90;;;;;;5041684;28;20101;-65
2021/05/25 10:21:55;;;;;;;1.42;0.35;;;14.40;52.50;;;;;;5028154;28;20257;-66
2021/05/25 10:24:23;;;;;;;1.48;0.35;;;14.40;52.00;;;;;;5033953;28;20124;-66
2021/05/25 10:26:53;;;;;;;1.50;0.57;;;14.40;53.00;;;;;;5031620;28;20021;-65
2021/05/25 10:29:19;;;;;;;2.10;0.52;;;14.40;53.20;;;;;;5035281;28;20409;-66
2021/05/25 10:31:55;;;;;;;2.05;0.40;;;14.40;53.20;;;;;;5033915;28;20494;-66
2021/05/25 10:34:22;;;;;;;1.17;0.30;;;14.50;52.00;;;;;;5033665;28;20033;-66
2021/05/25 10:36:59;;;;;;;0.88;0.32;;;14.50;51.60;;;;;;5030221;28;20064;-66
2021/05/25 10:39:44;;;;;;;0.93;0.30;;;14.50;51.70;;;;;;5032312;28;20539;-67
2021/05/25 10:42:29;;;;;;;0.90;0.50;;;14.60;51.20;;;;;;5031198;28;20049;-66
2021/05/25 10:44:58;;;;;;;;;;;14.70;50.90;;;;;;5033972;28;20512;-65
2021/05/25 10:47:35;;;;;;;2.05;0.50;;;14.80;50.90;;;;;;5033446;28;19919;-65
2021/05/25 10:50:27;;;;;;;2.92;0.60;;;14.90;50.40;;;;;;5035343;28;20084;-66
2021/05/25 10:53:03;;;;;;;5.78;0.52;;;14.90;48.80;;;;;;5031210;28;20412;-66
2021/05/25 10:55:40;;;;;;;2.55;1.60;;;14.90;48.50;;;;;;5035538;28;20032;-66
2021/05/25 10:58:35;;;;;;;1.95;0.98;;;14.90;48.20;;;;;;5031864;28;20033;-65
2021/05/25 11:01:34;;;;;;;1.02;0.55;;;15.00;48.10;;;;;;5032952;28;20037;-67
2021/05/25 11:04:10;;;;;;;2.55;1.42;;;15.00;47.40;;;;;;5034228;28;20508;-65
2021/05/25 11:06:40;;;;;;;1.70;0.43;;;15.10;47.90;;;;;;5034880;28;20037;-65
2021/05/25 11:09:27;;;;;;;3.20;0.52;;;15.20;48.30;;;;;;5035729;28;20029;-65
2021/05/25 11:12:07;;;;;;;2.38;1.20;;;15.30;46.90;;;;;;5036945;28;20373;-66
2021/05/25 11:14:33;;;;;;;3.35;1.10;;;15.40;46.90;;;;;;5037470;28;20033;-65
2021/05/25 11:17:33;;;;;;;2.72;1.23;;;15.50;48.10;;;;;;5039017;28;20029;-66
2021/05/25 11:20:38;;;;;;;4.88;0.73;;;15.50;46.40;;;;;;5039575;28;20112;-66
2021/05/25 11:23:48;;;;;;;1.77;0.60;;;15.60;46.00;;;;;;5035252;28;20048;-66
2021/05/25 11:26:54;;;;;;;3.97;0.60;;;15.60;45.90;;;;;;5031192;28;20604;-66
2021/05/25 11:29:22;;;;;;;1.33;0.68;;;15.60;44.30;;;;;;4957929;28;20070;-65
2021/05/25 11:31:47;;;;;;;4.20;1.20;;;15.50;47.10;;;;;;4957265;28;20035;-66
2021/05/25 11:34:22;;;;;;;2.15;0.50;;;15.50;47.30;;;;;;4997207;28;20036;-66
2021/05/25 11:37:00;;;;;;;3.83;0.60;;;15.40;46.60;;;;;;5038352;28;20033;-65
2021/05/25 11:39:32;;;;;;;2.72;1.60;;;15.40;46.80;;;;;;5037705;28;20548;-66
2021/05/25 11:42:05;;;;;;;2.53;0.88;;;15.40;46.80;;;;;;5034983;28;20041;-65
2021/05/25 11:44:38;;;;;;;2.22;0.68;;;15.30;47.30;;;;;;5035942;28;20048;-66
2021/05/25 11:47:06;;;;;;;3.55;1.70;;;15.20;46.60;;;;;;5044482;28;20033;-65
2021/05/25 11:49:43;;;;;;;2.47;0.70;;;15.20;47.50;;;;;;5036896;28;20707;-65
2021/05/25 11:52:23;;;;;;;3.85;1.40;;;15.20;47.40;;;;;;5035350;28;20049;-66
2021/05/25 11:54:51;;;;;;;4.07;2.35;;;15.10;46.70;;;;;;5036968;28;20036;-65
2021/05/25 11:57:43;;;;;;;1.17;0.70;;;15.10;48.20;;;;;;5035612;28;20060;-65
2021/05/25 12:00:17;;;;;;;2.45;1.30;;;15.00;48.20;;;;;;5035381;28;20512;-66
2021/05/25 12:02:47;;;;;;;2.25;0.47;;;15.10;48.20;;;;;;5035447;28;20036;-66
2021/05/25 12:05:23;;;;;;;4.38;2.67;;;15.10;47.30;;;;;;5035264;28;20413;-66
2021/05/25 12:07:59;;;;;;;4.07;1.05;;;15.20;47.50;;;;;;5038398;28;20029;-66
2021/05/25 12:10:29;;;;;;;2.50;0.40;;;15.20;47.70;;;;;;5033954;28;20050;-66
2021/05/25 12:13:09;;;;;;;3.60;0.60;;;15.30;47.10;;;;;;5036305;28;20592;-66
2021/05/25 12:15:52;;;;;;;1.60;0.40;;;15.30;46.80;;;;;;5031336;28;20610;-66
2021/05/25 12:18:22;;;;;;;1.38;0.40;;;15.40;46.20;;;;;;5037043;28;20025;-66
2021/05/25 12:20:54;;;;;;;3.65;0.80;;;15.40;47.10;;;;;;5034451;28;20091;-65
2021/05/25 12:23:24;;;;;;;1.40;0.52;;;15.40;46.30;;;;;;5034567;28;20147;-66
2021/05/25 12:25:54;;;;;;;2.63;0.45;;;15.40;47.10;;;;;;5033455;28;20029;-66
2021/05/25 12:28:32;;;;;;;2.25;0.40;;;15.40;47.40;;;;;;5033905;28;20029;-65
2021/05/25 12:31:01;;;;;;;3.05;0.50;;;15.50;47.00;;;;;;5034557;28;20064;-66
2021/05/25 12:33:37;;;;;;;1.55;0.30;;;15.50;47.50;;;;;;5037465;28;20033;-66
2021/05/25 12:36:29;;;;;;;2.95;0.57;;;15.60;47.80;;;;;;5034565;28;20053;-66
2021/05/25 12:39:06;;;;;;;3.17;0.55;;;15.80;46.80;;;;;;5038132;28;20029;-65
2021/05/25 12:41:46;;;;;;;1.30;0.40;;;15.80;45.50;;;;;;5034846;28;20041;-65
2021/05/25 12:44:20;;;;;;;5.28;0.40;;;15.90;43.50;;;;;;5035666;28;20037;-66
2021/05/25 12:46:58;;;;;;;1.15;0.40;;;16.00;45.30;;;;;;5035126;28;20037;-66
2021/05/25 12:49:39;;;;;;;1.75;0.30;;;16.00;44.10;;;;;;5036244;28;20096;-67
2021/05/25 12:52:27;;;;;;;1.17;0.40;;;16.10;44.20;;;;;;5035145;28;20029;-66
2021/05/25 12:55:07;;;;;;;1.50;0.30;;;16.10;43.90;;;;;;5036815;28;20037;-65
2021/05/25 12:57:46;;;;;;;3.53;0.40;;;16.10;43.90;;;;;;5033075;28;20092;-66
2021/05/25 13:00:36;;;;;;;1.45;0.20;;;16.10;42.10;;;;;;5035131;28;20045;-65
2021/05/25 13:03:21;;;;;;;2.10;0.43;;;16.10;43.90;;;;;;5034903;28;21047;-65
2021/05/25 13:05:52;;;;;;;;;;;16.10;43.50;;;;;;5036304;28;20112;-66
2021/05/25 13:08:24;;;;;;;2.70;0.32;;;16.20;44.00;;;;;;5034559;28;20159;-66
2021/05/25 13:11:11;;;;;;;1.65;0.40;;;16.20;43.60;;;;;;5032549;28;20436;-66
2021/05/25 13:13:39;;;;;;;3.25;0.40;;;16.20;40.40;;;;;;5032698;28;20049;-66
2021/05/25 13:16:17;;;;;;;1.55;0.60;;;16.20;43.30;;;;;;5035384;28;20507;-66
2021/05/25 13:18:51;;;;;;;1.60;0.65;;;16.20;43.50;;;;;;5044069;28;20037;-65
2021/05/25 13:21:25;;;;;;;2.53;0.50;;;16.30;43.20;;;;;;5031459;28;20041;-65